Terminal Aerodrome Forecast
Issued by NWS

Home | Current Version | Previous Version | Text Only | Print | Product List | Glossary On
Versions: 1 2 3 4 5 6 7 8 9 10 11 12 13 14 15 16 17 18 19 20 21 22 23 24 25 26 27 28
000
FTUS45 KBOU 290436 AAD
TAFBJC
TAF AMD
KBJC 290436Z 2905/2924 02014G20KT 2SM -SN BR BKN004 OVC009
      TEMPO 2905/2907 1SM -SN BR OVC004
     FM290900 03012KT 3SM -SN BR OVC007
     FM291500 01007KT 4SM -SN BR OVC011
     FM292000 36012G22KT 5SM -SHSN BR SCT012 OVC022=

USA.gov is the U.S. government's official web portal to all federal, state and local government web resources and services.